Somerset, KY

8:13 AM EDT on July 24, 2014 (GMT -0400)
London-Corbin / McKee (KLOZ) Elev 1211 ft | 37.09 °N, 84.08 °W | Change Station
Active Advisory: Special Statement

Current weather conditions updated 10 minutes ago

Overcast
Overcast
70 °F
Feels Like 70 °F
N
4
Wind Variable Wind from South

Today is forecast to be Much Cooler than yesterday. Scattered thunderstorms.

Today
High -- | Low -- °F
--% Chance of Precip.
Yesterday
High -- | Low -- °F
Precip. -- in
6:36 AM 8:52 PM
Waning Crescent, 5% visible
Pressure 29.99 in
Visibility 1.8 miles
Clouds Overcast 400 ft
Dew Point 68 °F
Humidity 93%
Rainfall 0.00 in
Snow Depth Not available.
UV 0 out of 12
Pollen 2.20 out of 12
Air Quality Not available.
Flu Activity Not available.
SPECI KLOZ 241203Z AUTO 19003KT 1 3/4SM BR OVC004 21/20 A2999 RMK AO2 CIG 002V008 T02110200

More Conditions Fewer Conditions

Pressure 29.99 in
Visibility 1.8 miles
Clouds Overcast 400 ft
Dew Point 68 °F
Humidity 93%
Rainfall 0.00 in
Snow Depth Not available.
UV 0 out of 12
Pollen 2.20 out of 12
Air Quality Not available.
Flu Activity Not available.
SPECI KLOZ 241203Z AUTO 19003KT 1 3/4SM BR OVC004 21/20 A2999 RMK AO2 CIG 002V008 T02110200

More Conditions Fewer Conditions

10-Day Weather Forecast

Almanac

Astronomy

Jul. 24, 2014 Rise Set
Actual Time 6:36 AM EDT 8:52 PM EDT
Civil Twilight 6:07 AM EDT 9:21 PM EDT
Nautical Twilight 5:31 AM EDT 9:57 PM EDT
Astronomical Twilight 4:51 AM EDT 10:36 PM EDT
Moon 4:43 AM EDT 7:07 PM EDT
Length of Visible Light 15h 13m
Length of Day
14h 15m
Tomorrow will be 1m 33s shorter.
Waning Crescent, 5% of the Moon is Illuminated
Today
Waning Crescent
Jul 26
New
Aug 3
First Quarter
Aug 10
Full
Aug 17
Last Quarter

Today's Extremes

State Highs State Lows

Community

WunderPhotos

Upload Photos

1,736,986 photos uploaded!

Nearby

Snow Depth

Station Depth Elevation
No new snow has been reported.

Earthquake Activity

City Distance Mag. Time & Date
No recent earthquake activity has been reported nearby.
Minimum magnitude displayed is 2.5.

Coastal Water Temperatures

Place Temperature
No Stations Reporting

Nearby Weather Stations

Station Location Temp. Heat Index Dew Point Humidity Wind Precip. Elev Updated Type
RMR - Somerset, Ferguson, KY 70.2 °F - 70 °F 100% South  at  0.0 mph 0.00 in / hr 909 ft 8:00 AM EDT Normal
RAWS SOMERSET KY, Ferguson, KY 70 °F - 69 °F 98% SW  at  3 mph 0.00 in / hr 920 ft 7:01 AM EDT MADIS
HALLS BACKYARD WEATHER, SCIENCE HILL, KY 70.3 °F - 69 °F 95% SE  at  0.0 mph 0.00 in / hr 1076 ft 8:12 AM EDT Normal
Burnside, KY 70.9 °F 77 °F 49 °F 46% SW  at  0.0 mph 0.00 in / hr 1200 ft 8:13 AM EDT Rapid Fire
Colonial Estates, Monticello, KY 70.0 °F - 70 °F 100% South  at  0.7 mph 0.00 in / hr 1004 ft 8:10 AM EDT Normal
MSWO, London, KY 69.6 °F - 69 °F 98% SSW  at  0.9 mph 0.00 in / hr 1163 ft 8:13 AM EDT Rapid Fire

Show More Stations Show Fewer Stations